Time;durP1;ratioP1;P1;durP2;ratioP2;P2;SDS_P1;SDS_P2;PMS_P1;PMS_P2;Temp;Humidity;BMP_temperature;BMP_pressure;BME280_temperature;BME280_humidity;BME280_pressure;Samples;Min_cycle;Max_cycle;Signal;HPM_P1;HPM_P2
2022/06/20 00:00:42;;;;;;;10.30;4.87;;;;;;;22.09;57.09;99845.03;1754031;80;25828;-77
2022/06/20 00:03:17;;;;;;;9.08;4.53;;;;;;;22.05;57.21;99838.47;1770799;79;25806;-79
2022/06/20 00:05:43;;;;;;;7.20;4.05;;;;;;;21.94;57.10;99814.52;1737996;80;25782;-78
2022/06/20 00:08:11;;;;;;;11.57;4.35;;;;;;;21.88;57.32;99798.47;1736819;80;27430;-77
2022/06/20 00:10:41;;;;;;;9.58;4.20;;;;;;;21.88;57.50;99782.11;1762941;79;25798;-77
2022/06/20 00:13:11;;;;;;;;;;;;;;;21.86;57.55;99776.12;1773114;79;25825;-78
2022/06/20 00:15:38;;;;;;;8.73;4.30;;;;;;;21.84;57.87;99766.04;1758692;79;25870;-78
2022/06/20 00:18:07;;;;;;;9.73;4.78;;;;;;;21.81;57.61;99757.05;1724708;81;25897;-79
2022/06/20 00:20:33;;;;;;;7.33;3.42;;;;;;;21.79;57.66;99754.58;1725830;82;27472;-78
2022/06/20 00:22:59;;;;;;;10.58;4.10;;;;;;;21.75;57.64;99746.70;1761236;79;26103;-77
2022/06/20 00:25:26;;;;;;;9.65;5.17;;;;;;;21.69;57.78;99738.82;1763564;79;26070;-77
2022/06/20 00:27:56;;;;;;;6.95;4.45;;;;;;;21.64;58.01;99744.31;1764406;79;26478;-78
2022/06/20 00:30:23;;;;;;;8.37;3.90;;;;;;;21.59;58.05;99733.42;1755459;79;25921;-77
2022/06/20 00:32:50;;;;;;;9.18;5.53;;;;;;;21.56;58.24;99718.98;1767474;79;27654;-78
2022/06/20 00:35:18;;;;;;;10.05;4.33;;;;;;;21.50;58.34;99718.20;1761425;79;25748;-79
2022/06/20 00:37:44;;;;;;;5.85;4.40;;;;;;;21.40;58.43;99767.30;1723500;81;25866;-78
2022/06/20 00:40:28;;;;;;;8.98;5.10;;;;;;;21.38;58.83;99795.37;1771477;79;26620;-78
2022/06/20 00:42:55;;;;;;;8.18;4.30;;;;;;;21.34;58.83;99815.52;1785499;78;25750;-78
2022/06/20 00:45:24;;;;;;;5.47;4.45;;;;;;;21.33;59.09;99859.39;1768882;79;27630;-79
2022/06/20 00:47:53;;;;;;;9.95;4.60;;;;;;;21.18;59.08;99872.48;1763220;79;25823;-79
2022/06/20 00:50:30;;;;;;;9.25;5.08;;;;;;;20.98;59.64;99862.13;1738774;79;26527;-78
2022/06/20 00:53:29;;;;;;;9.13;4.55;;;;;;;20.87;60.15;99869.44;1759174;79;26452;-77
2022/06/20 00:56:06;;;;;;;8.43;4.70;;;;;;;20.84;60.10;99858.29;1750384;79;25717;-77
2022/06/20 00:58:53;;;;;;;10.85;4.60;;;;;;;20.86;60.27;99860.19;1743320;80;27491;-78
2022/06/20 01:01:25;;;;;;;5.10;4.60;;;;;;;20.90;60.41;99864.00;1738188;80;25974;-77
2022/06/20 01:03:56;;;;;;;8.00;4.15;;;;;;;20.82;60.63;99857.21;1736361;80;25621;-78
2022/06/20 01:06:30;;;;;;;13.30;4.42;;;;;;;20.78;60.71;99862.36;1699205;83;26539;-78
2022/06/20 01:09:02;;;;;;;10.48;4.95;;;;;;;20.78;60.78;99867.02;1764563;79;25779;-77
2022/06/20 01:11:45;;;;;;;7.47;4.83;;;;;;;20.75;61.10;99875.17;1756371;79;28243;-78
2022/06/20 01:14:38;;;;;;;8.30;5.10;;;;;;;20.76;61.04;99872.70;1757943;79;26627;-79
2022/06/20 01:17:11;;;;;;;8.68;4.90;;;;;;;20.79;61.25;99863.19;1758367;79;26516;-78
2022/06/20 01:20:03;;;;;;;8.78;5.15;;;;;;;20.78;61.37;99848.49;1719082;80;26007;-78
2022/06/20 01:22:38;;;;;;;4.97;4.47;;;;;;;20.78;61.47;99850.68;1765212;78;26629;-78
2022/06/20 01:25:13;;;;;;;8.08;5.80;;;;;;;20.80;61.73;99860.75;1761548;80;28258;-79
2022/06/20 01:27:43;;;;;;;11.30;6.22;;;;;;;20.77;61.70;99859.91;1757107;80;25736;-78
2022/06/20 01:30:11;;;;;;;10.10;6.45;;;;;;;20.74;62.11;99846.30;1790560;79;25901;-79
2022/06/20 01:32:38;;;;;;;13.78;7.10;;;;;;;20.73;62.09;99856.11;1709033;81;26540;-77
2022/06/20 01:35:09;;;;;;;15.90;6.62;;;;;;;20.76;62.11;99847.41;1728359;80;25913;-77
2022/06/20 01:37:40;;;;;;;15.10;7.03;;;;;;;20.78;62.25;99845.77;1778867;79;27447;-78
2022/06/20 01:40:12;;;;;;;9.38;5.95;;;;;;;20.78;62.42;99852.83;1766448;79;25718;-78
2022/06/20 01:42:41;;;;;;;10.25;5.72;;;;;;;20.79;62.69;99876.80;1746538;80;25804;-79
2022/06/20 01:48:08;;;;;;;11.53;5.50;;;;;;;20.57;62.94;99871.59;1758438;79;26561;-78
2022/06/20 01:50:36;;;;;;;11.68;5.50;;;;;;;20.54;63.39;99869.95;1766832;79;27620;-78
2022/06/20 01:53:06;;;;;;;8.70;5.35;;;;;;;20.44;63.64;99874.03;1764403;79;25917;-79
2022/06/20 01:55:34;;;;;;;12.47;5.08;;;;;;;20.37;64.19;99878.89;1775620;78;25778;-80
2022/06/20 01:58:12;;;;;;;7.50;4.62;;;;;;;20.31;64.76;99879.44;1764289;79;25740;-78
2022/06/20 02:00:38;;;;;;;13.78;5.85;;;;;;;20.17;65.12;99891.02;1795613;79;25916;-78
2022/06/20 02:03:13;;;;;;;11.55;5.37;;;;;;;20.03;65.78;99888.00;1792104;78;28140;-77
2022/06/20 02:05:42;;;;;;;12.37;5.03;;;;;;;19.93;66.29;99892.83;1768667;79;25835;-79
2022/06/20 02:08:09;;;;;;;9.40;5.00;;;;;;;19.83;66.43;99878.37;1761186;79;25889;-79
2022/06/20 02:10:43;;;;;;;10.48;5.00;;;;;;;19.85;66.80;99888.44;1780894;79;26607;-79
2022/06/20 02:13:13;;;;;;;7.62;4.50;;;;;;;19.93;67.12;99885.24;1766166;79;25935;-79
2022/06/20 02:15:41;;;;;;;12.82;5.25;;;;;;;20.00;67.10;99889.34;1761551;79;27465;-79
2022/06/20 02:18:08;;;;;;;12.53;5.53;;;;;;;20.07;67.13;99889.63;1776547;79;25951;-78
2022/06/20 02:20:45;;;;;;;11.00;5.30;;;;;;;20.10;67.21;99895.37;1768401;79;25863;-78
2022/06/20 02:23:10;;;;;;;13.60;5.58;;;;;;;20.08;67.48;99900.80;1747792;80;26646;-78
2022/06/20 02:25:37;;;;;;;14.45;5.00;;;;;;;20.00;67.27;99915.70;1762043;80;25370;-79
2022/06/20 02:28:11;;;;;;;11.45;4.62;;;;;;;20.02;67.71;99920.89;1714700;80;27459;-79
2022/06/20 02:30:39;;;;;;;9.25;4.92;;;;;;;19.95;67.94;99921.13;1750867;80;25839;-78
2022/06/20 02:33:15;;;;;;;18.87;6.35;;;;;;;19.85;68.24;99927.31;1767572;79;25754;-80
2022/06/20 02:35:43;;;;;;;10.23;5.20;;;;;;;19.81;68.55;99931.65;1735791;81;25839;-79
2022/06/20 02:38:12;;;;;;;11.03;5.20;;;;;;;19.69;68.96;99935.66;1769487;79;26036;-77
2022/06/20 02:40:41;;;;;;;11.40;4.85;;;;;;;19.66;69.29;99933.44;1779331;78;28307;-79
2022/06/20 02:43:22;;;;;;;11.75;5.40;;;;;;;19.59;69.88;99936.39;1776156;79;25857;-79
2022/06/20 02:45:51;;;;;;;9.05;4.55;;;;;;;19.48;69.88;99951.53;1764355;78;25319;-78
2022/06/20 02:48:20;;;;;;;13.43;4.20;;;;;;;19.36;70.45;99948.16;1757160;79;25770;-78
2022/06/20 02:50:54;;;;;;;13.72;4.58;;;;;;;19.27;71.28;99943.72;1758791;78;26315;-78
2022/06/20 02:53:47;;;;;;;9.83;3.87;;;;;;;19.21;71.23;99940.68;1741589;79;28747;-79
2022/06/20 02:56:17;;;;;;;8.00;4.35;;;;;;;19.20;71.64;99956.14;1757442;79;25935;-80
2022/06/20 02:58:51;;;;;;;7.45;3.30;;;;;;;19.13;72.51;99960.99;1753542;79;25558;-78
2022/06/20 03:01:37;;;;;;;12.75;4.22;;;;;;;19.07;72.42;99960.67;1784881;79;26454;-79
2022/06/20 03:04:06;;;;;;;15.20;4.42;;;;;;;19.04;72.46;99951.67;1734187;81;25781;-78
2022/06/20 03:06:38;;;;;;;10.95;4.15;;;;;;;19.10;72.36;99946.56;1765475;79;27426;-78
2022/06/20 03:09:05;;;;;;;17.55;3.87;;;;;;;19.11;72.65;99946.86;1755423;79;25892;-77
2022/06/20 03:11:35;;;;;;;10.68;3.50;;;;;;;19.10;72.37;99953.88;1754889;80;26302;-78
2022/06/20 03:14:06;;;;;;;10.32;4.22;;;;;;;19.11;72.82;99950.11;1760638;79;25869;-79
2022/06/20 03:16:33;;;;;;;10.75;3.60;;;;;;;19.07;72.88;99947.09;1712926;81;25917;-78
2022/06/20 03:19:02;;;;;;;13.18;5.05;;;;;;;19.09;72.95;99949.02;1779279;79;27685;-78
2022/06/20 03:21:33;;;;;;;11.12;3.60;;;;;;;19.12;73.12;99948.48;1763172;78;25962;-78
2022/06/20 03:24:02;;;;;;;10.90;3.60;;;;;;;19.10;73.38;99962.85;1734486;80;25575;-78
2022/06/20 03:26:29;;;;;;;15.75;4.12;;;;;;;19.07;73.36;99969.34;1744545;80;26582;-78
2022/06/20 03:28:55;;;;;;;10.38;3.50;;;;;;;19.06;73.68;99971.23;1756590;79;25609;-78
2022/06/20 03:31:22;;;;;;;15.10;4.37;;;;;;;19.09;73.64;99965.30;1765034;80;28351;-78
2022/06/20 03:33:49;;;;;;;14.30;3.65;;;;;;;19.14;73.88;99955.83;1768893;79;26542;-78
2022/06/20 03:36:23;;;;;;;8.45;3.37;;;;;;;19.14;73.86;99960.43;1737392;80;26063;-78
2022/06/20 03:38:51;;;;;;;12.28;3.67;;;;;;;19.12;74.21;99976.98;1770762;79;26020;-79
2022/06/20 03:41:24;;;;;;;13.00;3.60;;;;;;;19.08;74.30;99978.58;1771050;79;26178;-78
2022/06/20 03:44:10;;;;;;;12.20;2.85;;;;;;;19.05;74.30;99992.66;1739188;80;28253;-77
2022/06/20 03:46:48;;;;;;;13.93;4.22;;;;;;;19.04;74.75;99991.56;1735685;80;25976;-78
2022/06/20 03:49:34;;;;;;;9.80;3.20;;;;;;;19.03;74.70;99989.94;1770266;79;25273;-77
2022/06/20 03:52:12;;;;;;;16.48;4.17;;;;;;;19.03;75.26;99981.80;1731113;80;25582;-79
2022/06/20 03:54:46;;;;;;;14.85;3.47;;;;;;;18.95;75.39;99980.88;1752237;79;26397;-81
2022/06/20 03:57:18;;;;;;;12.43;3.05;;;;;;;18.87;75.68;99988.95;1770285;79;27495;-82
2022/06/20 03:59:52;;;;;;;8.30;3.52;;;;;;;18.86;75.81;99998.72;1768036;79;25860;-78
2022/06/20 04:02:27;;;;;;;12.60;3.85;;;;;;;18.89;75.97;100006.33;1752888;79;25873;-79
2022/06/20 04:05:23;;;;;;;13.18;3.95;;;;;;;18.93;76.37;100012.88;1767489;79;25815;-77
2022/06/20 04:08:15;;;;;;;9.00;3.95;;;;;;;18.94;76.93;100026.75;1762458;79;26599;-78
2022/06/20 04:10:58;;;;;;;15.05;3.47;;;;;;;18.93;77.06;100038.67;1770455;79;27442;-81
2022/06/20 04:13:36;;;;;;;7.33;3.62;;;;;;;18.89;76.84;100048.39;1767745;79;25760;-78
2022/06/20 04:16:13;;;;;;;9.13;4.35;;;;;;;18.91;77.20;100061.17;1770474;79;25854;-79
2022/06/20 04:18:45;;;;;;;15.00;4.30;;;;;;;18.89;77.43;100054.66;1782709;79;25943;-78
2022/06/20 04:21:35;;;;;;;12.93;4.20;;;;;;;18.89;77.52;100055.18;1775299;79;25637;-79
2022/06/20 04:24:37;;;;;;;15.18;4.70;;;;;;;18.91;77.52;100066.07;1753584;80;27473;-79
2022/06/20 04:27:38;;;;;;;16.05;4.95;;;;;;;18.95;77.88;100073.98;1749377;80;25810;-78
2022/06/20 04:30:16;;;;;;;14.98;5.60;;;;;;;18.80;77.85;100087.38;1762524;79;26758;-79
2022/06/20 04:32:51;;;;;;;10.98;5.35;;;;;;;18.70;79.10;100108.95;1742938;79;26606;-79
2022/06/20 04:35:37;;;;;;;7.28;5.05;;;;;;;18.54;78.15;100091.37;1763471;79;26792;-78
2022/06/20 04:38:20;;;;;;;12.60;5.17;;;;;;;18.45;78.45;100093.14;1758382;79;27450;-79
2022/06/20 04:41:06;;;;;;;10.18;5.83;;;;;;;18.39;78.80;100083.83;1774279;79;25767;-78
2022/06/20 04:43:56;;;;;;;11.53;5.83;;;;;;;18.30;78.94;100059.03;1766006;80;25798;-78
2022/06/20 04:46:33;;;;;;;10.80;5.92;;;;;;;18.26;79.17;100051.08;1761630;79;26011;-80
2022/06/20 04:49:00;;;;;;;12.05;6.55;;;;;;;18.31;79.71;100076.09;1764823;79;25849;-79
2022/06/20 04:51:34;;;;;;;9.58;5.87;;;;;;;18.41;80.19;100085.75;1769018;79;27498;-79
2022/06/20 04:54:01;;;;;;;10.82;5.85;;;;;;;18.40;79.68;100101.72;1736380;80;25850;-78
2022/06/20 04:56:28;;;;;;;13.62;6.55;;;;;;;18.39;80.46;100115.02;1750597;80;25315;-78
2022/06/20 04:59:05;;;;;;;12.85;6.22;;;;;;;18.32;80.17;100116.55;1769457;80;26562;-79
2022/06/20 05:01:34;;;;;;;10.30;6.30;;;;;;;18.27;80.46;100104.25;1778290;79;26613;-78
2022/06/20 05:04:35;;;;;;;12.93;7.37;;;;;;;18.18;80.77;100117.11;1766740;79;27606;-78
2022/06/20 05:07:04;;;;;;;14.53;6.90;;;;;;;18.12;80.98;100121.64;1763842;79;25844;-78
2022/06/20 05:09:48;;;;;;;10.85;7.17;;;;;;;18.05;80.95;100124.25;1765312;79;25872;-80
2022/06/20 05:12:22;;;;;;;14.85;7.00;;;;;;;18.03;81.24;100100.08;1721919;80;25769;-78
2022/06/20 05:15:00;;;;;;;11.88;7.00;;;;;;;17.98;81.38;100105.44;1778009;79;25546;-78
2022/06/20 05:17:31;;;;;;;20.00;7.92;;;;;;;18.01;81.60;100102.22;1746796;80;28281;-79
2022/06/20 05:20:09;;;;;;;12.80;7.08;;;;;;;18.02;81.66;100109.82;1742586;80;25952;-79
2022/06/20 05:22:40;;;;;;;12.30;7.42;;;;;;;18.09;82.00;100127.55;1743210;80;25629;-79
2022/06/20 05:25:10;;;;;;;13.62;7.20;;;;;;;18.17;81.81;100129.03;1768948;79;27045;-77
2022/06/20 05:27:56;;;;;;;9.55;7.00;;;;;;;18.23;81.64;100131.58;1771799;80;26411;-78
2022/06/20 05:30:28;;;;;;;12.73;7.08;;;;;;;18.30;81.92;100150.39;1772043;80;28294;-79
2022/06/20 05:33:15;;;;;;;11.08;6.87;;;;;;;18.26;81.92;100167.67;1771868;80;25786;-78
2022/06/20 05:35:46;;;;;;;13.43;7.42;;;;;;;18.25;81.58;100144.35;1772019;80;25771;-79
2022/06/20 05:38:30;;;;;;;14.95;7.28;;;;;;;18.20;81.67;100109.55;1772423;80;26978;-77
2022/06/20 05:40:59;;;;;;;10.63;6.62;;;;;;;18.11;82.24;100074.46;1772100;80;25837;-79
2022/06/20 05:43:29;;;;;;;13.18;7.80;;;;;;;17.95;82.26;100061.20;1758763;79;27452;-78
2022/06/20 05:46:03;;;;;;;17.75;7.70;;;;;;;17.86;82.58;100044.24;1765053;79;25848;-79
2022/06/20 05:48:46;;;;;;;11.65;7.55;;;;;;;17.80;83.29;100023.56;1741596;80;26101;-78
2022/06/20 05:51:16;;;;;;;14.98;7.75;;;;;;;17.73;83.10;100038.62;1746723;80;26731;-80
2022/06/20 05:54:00;;;;;;;18.40;8.40;;;;;;;17.80;83.51;100047.42;1777131;79;25616;-79
2022/06/20 05:56:38;;;;;;;11.93;7.33;;;;;;;17.90;83.67;100032.66;1752302;80;26941;-79
2022/06/20 05:59:07;;;;;;;16.45;8.00;;;;;;;17.97;83.81;100004.04;1749777;80;25531;-79
2022/06/20 06:01:38;;;;;;;13.53;9.43;;;;;;;18.03;83.61;100003.03;1763070;79;25843;-79
2022/06/20 06:04:28;;;;;;;14.87;9.50;;;;;;;18.08;83.71;99999.05;1767810;79;25928;-78
2022/06/20 06:07:12;;;;;;;20.92;10.00;;;;;;;18.11;83.68;99989.88;1749013;79;25895;-80
2022/06/20 06:09:46;;;;;;;14.63;8.73;;;;;;;18.15;83.67;99994.28;1741406;80;28157;-78
2022/06/20 06:12:36;;;;;;;15.45;9.55;;;;;;;18.17;83.44;99986.72;1757370;80;25710;-79
2022/06/20 06:15:14;;;;;;;16.12;9.93;;;;;;;18.20;83.87;99979.42;1763389;80;25792;-79
2022/06/20 06:17:54;;;;;;;15.15;10.32;;;;;;;18.24;84.00;99982.73;1728535;80;25841;-79
2022/06/20 06:20:25;;;;;;;18.30;9.78;;;;;;;18.27;84.63;99996.33;1765156;79;25824;-79
2022/06/20 06:22:57;;;;;;;15.50;9.70;;;;;;;18.25;84.58;99991.17;1723760;80;28290;-79
2022/06/20 06:25:34;;;;;;;17.85;9.95;;;;;;;18.29;84.96;99969.78;1724224;80;26112;-79
2022/06/20 06:28:09;;;;;;;15.08;8.98;;;;;;;18.39;85.01;99978.07;1769515;80;25711;-79
2022/06/20 06:30:46;;;;;;;15.60;10.38;;;;;;;18.46;85.81;99986.31;1763057;79;25805;-78
2022/06/20 06:33:27;;;;;;;17.12;9.65;;;;;;;18.50;84.95;100012.38;1760756;79;26162;-80
2022/06/20 06:36:15;;;;;;;;;;;;;;;18.62;85.18;100002.77;1767559;79;28417;-79
2022/06/20 06:39:07;;;;;;;13.55;9.43;;;;;;;18.70;85.55;100108.95;1736116;80;25959;-80
2022/06/20 06:41:46;;;;;;;14.90;10.68;;;;;;;18.54;85.85;100091.37;1733188;80;25827;-78
2022/06/20 06:44:31;;;;;;;16.67;9.80;;;;;;;18.36;85.69;100104.13;1740525;80;25781;-79
2022/06/20 06:46:59;;;;;;;16.82;10.93;;;;;;;18.25;87.04;100074.39;1768262;79;26006;-79
2022/06/20 06:49:43;;;;;;;18.67;10.13;;;;;;;18.33;87.24;100084.80;1772004;79;28430;-78
2022/06/20 06:52:29;;;;;;;16.10;10.25;;;;;;;18.43;86.73;100072.20;1746322;80;26768;-79
2022/06/20 06:55:38;;;;;;;16.27;10.48;;;;;;;18.55;87.26;100074.02;1757412;79;25855;-79
2022/06/20 06:58:38;;;;;;;17.70;11.55;;;;;;;18.57;86.91;100080.84;1737678;80;25765;-78
2022/06/20 07:01:13;;;;;;;12.82;10.65;;;;;;;18.56;86.39;100069.72;1781345;79;26277;-80
2022/06/20 07:03:48;;;;;;;14.18;10.78;;;;;;;18.67;86.93;100070.11;1755515;80;27431;-79
2022/06/20 07:06:22;;;;;;;13.78;11.03;;;;;;;18.74;87.60;100078.06;1738923;80;25945;-79
2022/06/20 07:08:54;;;;;;;18.15;12.25;;;;;;;18.78;87.26;100082.73;1724444;80;26483;-78
2022/06/20 07:11:25;;;;;;;18.00;12.50;;;;;;;18.77;86.59;100074.33;1760365;79;26614;-79
2022/06/20 07:14:02;;;;;;;15.78;12.10;;;;;;;18.70;86.12;100058.77;1733128;81;25719;-77
2022/06/20 07:16:43;;;;;;;16.48;13.68;;;;;;;18.65;85.89;100052.47;1760944;79;27400;-78
2022/06/20 07:19:12;;;;;;;17.40;11.93;;;;;;;18.67;86.22;100066.04;1762840;80;26344;-78
2022/06/20 07:21:41;;;;;;;14.30;11.70;;;;;;;18.74;86.97;100083.48;1736064;79;25508;-80
2022/06/20 07:24:15;;;;;;;15.90;11.25;;;;;;;18.74;86.34;100084.31;1772483;79;26259;-79
2022/06/20 07:26:50;;;;;;;13.93;10.82;;;;;;;18.72;85.83;100074.25;1750185;80;25974;-80
2022/06/20 07:29:22;;;;;;;16.30;11.05;;;;;;;18.71;85.87;100061.75;1758530;79;27519;-80
2022/06/20 07:31:54;;;;;;;11.45;9.43;;;;;;;18.72;86.40;100042.22;1741141;80;25861;-79
2022/06/20 07:34:28;;;;;;;13.35;10.80;;;;;;;18.69;86.06;100021.05;1760429;79;25699;-79
2022/06/20 07:37:02;;;;;;;15.70;11.57;;;;;;;18.78;86.67;100012.72;1761138;79;26701;-78
2022/06/20 07:39:51;;;;;;;16.27;10.20;;;;;;;18.83;86.64;99987.00;1766964;79;25767;-80
2022/06/20 07:42:44;;;;;;;16.65;11.12;;;;;;;18.83;86.25;99976.15;1772328;79;27440;-79
2022/06/20 07:45:19;;;;;;;13.20;10.53;;;;;;;18.92;86.77;99960.52;1749721;80;25895;-79
2022/06/20 07:48:02;;;;;;;17.87;12.88;;;;;;;19.02;86.64;99948.39;1760707;80;25750;-78
2022/06/20 07:50:42;;;;;;;13.72;11.80;;;;;;;19.17;87.65;99937.67;1743630;79;26539;-78
2022/06/20 07:53:17;;;;;;;16.12;12.55;;;;;;;19.32;87.71;99920.69;1763656;79;25866;-79
2022/06/20 07:55:49;;;;;;;18.60;12.88;;;;;;;19.44;87.21;99900.97;1744907;80;28256;-78
2022/06/20 07:58:23;;;;;;;21.07;14.93;;;;;;;19.57;87.29;99879.31;1746430;80;26528;-78
2022/06/20 08:00:53;;;;;;;22.13;14.35;;;;;;;19.69;87.19;99873.16;1758735;79;25847;-78
2022/06/20 08:03:44;;;;;;;16.10;13.78;;;;;;;19.81;87.61;99864.23;1745557;79;25944;-79
2022/06/20 08:06:24;;;;;;;24.05;15.28;;;;;;;19.98;87.80;99835.78;1753380;80;25955;-78
2022/06/20 08:09:01;;;;;;;16.17;14.18;;;;;;;20.15;87.41;99829.29;1739123;79;27461;-78
2022/06/20 08:11:42;;;;;;;19.95;13.45;;;;;;;20.33;87.91;99827.48;1727555;81;25817;-77
2022/06/20 08:14:32;;;;;;;17.20;12.70;;;;;;;20.42;87.26;99816.35;1743893;79;26468;-78
2022/06/20 08:17:07;;;;;;;15.35;12.63;;;;;;;20.45;86.73;99805.73;1755470;79;26608;-78
2022/06/20 08:19:34;;;;;;;15.40;12.40;;;;;;;20.45;86.21;99815.26;1728126;81;25983;-78
2022/06/20 08:22:09;;;;;;;14.05;11.33;;;;;;;20.52;86.64;99826.70;1771677;79;27434;-79
2022/06/20 08:24:55;;;;;;;13.28;11.85;;;;;;;20.65;86.70;99836.23;1780439;79;26439;-78
2022/06/20 08:27:47;;;;;;;15.08;11.65;;;;;;;20.78;86.32;99850.68;1750241;80;26351;-78
2022/06/20 08:30:18;;;;;;;16.52;11.10;;;;;;;20.82;84.98;99876.27;1752649;80;25771;-77
2022/06/20 08:33:02;;;;;;;15.30;12.60;;;;;;;21.01;85.58;99886.06;1760198;80;26003;-78
2022/06/20 08:35:58;;;;;;;19.12;12.85;;;;;;;21.24;85.61;99871.92;1758148;80;28302;-78
2022/06/20 08:38:48;;;;;;;20.32;12.25;;;;;;;21.45;85.04;99867.54;1778747;79;25958;-78
2022/06/20 08:41:41;;;;;;;16.17;10.70;;;;;;;21.63;84.44;99854.42;1766455;80;25984;-77
2022/06/20 08:44:25;;;;;;;21.42;13.98;;;;;;;21.79;84.39;99858.75;1757273;80;26202;-78
2022/06/20 08:47:31;;;;;;;13.13;10.70;;;;;;;21.98;84.42;99854.34;1736988;80;26417;-78
2022/06/20 08:50:19;;;;;;;11.83;10.35;;;;;;;22.12;83.12;99852.09;1731248;80;27468;-78
2022/06/20 08:53:33;;;;;;;14.28;10.70;;;;;;;22.23;82.82;99839.21;1759500;79;26450;-78
2022/06/20 08:56:26;;;;;;;13.35;10.03;;;;;;;22.40;82.78;99838.30;1692397;81;26655;-78
2022/06/20 08:58:58;;;;;;;11.68;9.55;;;;;;;22.47;82.18;99831.98;1710069;81;25932;-79
2022/06/20 09:01:49;;;;;;;16.87;10.05;;;;;;;22.60;81.80;99816.37;1738011;80;25298;-77
2022/06/20 09:04:27;;;;;;;13.60;9.43;;;;;;;22.75;82.43;99815.43;1739342;80;27455;-78
2022/06/20 09:07:04;;;;;;;14.40;10.03;;;;;;;22.87;81.83;99807.12;1683918;81;26334;-79
2022/06/20 09:10:02;;;;;;;15.58;9.40;;;;;;;23.02;81.70;99800.71;1755886;79;25988;-77
2022/06/20 09:12:57;;;;;;;11.88;9.43;;;;;;;23.13;80.89;99794.05;1767834;79;26400;-78
2022/06/20 09:16:01;;;;;;;10.32;8.13;;;;;;;23.27;80.35;99796.91;1764112;79;25882;-77
2022/06/20 09:18:38;;;;;;;16.75;9.20;;;;;;;23.35;79.40;99814.88;1751751;79;27465;-78
2022/06/20 09:21:19;;;;;;;12.95;8.60;;;;;;;23.45;78.48;99824.91;1711190;79;25890;-78
2022/06/20 09:24:27;;;;;;;14.75;8.30;;;;;;;23.48;78.17;99833.33;1760645;79;33055;-78
2022/06/20 09:27:40;;;;;;;12.73;9.18;;;;;;;23.52;76.96;99853.52;1759883;79;25833;-79
2022/06/20 09:30:12;;;;;;;14.73;8.85;;;;;;;23.54;77.38;99853.25;1756095;79;25330;-77
2022/06/20 09:33:20;;;;;;;12.55;8.53;;;;;;;23.64;76.47;99861.33;1765209;79;28300;-77
2022/06/20 09:36:15;;;;;;;10.80;8.43;;;;;;;23.76;76.75;99862.55;1758860;79;26526;-78
2022/06/20 09:39:00;;;;;;;13.50;8.70;;;;;;;23.93;77.74;99874.97;1671403;79;25892;-78
2022/06/20 09:41:52;;;;;;;11.53;7.97;;;;;;;23.81;76.61;99881.38;1712320;82;25944;-78
2022/06/20 09:44:49;;;;;;;9.75;8.13;;;;;;;23.78;76.63;99884.95;1754998;79;26169;-79
2022/06/20 09:48:12;;;;;;;13.72;10.72;;;;;;;23.66;76.68;99879.63;1759467;79;27451;-78
2022/06/20 09:50:56;;;;;;;10.70;9.48;;;;;;;23.45;76.39;99879.58;1742593;79;25924;-78
2022/06/20 09:54:02;;;;;;;15.13;10.40;;;;;;;23.29;77.62;99877.50;1750077;79;25859;-78
2022/06/20 09:56:43;;;;;;;13.35;10.80;;;;;;;23.32;78.11;99880.22;1746698;79;26911;-78
2022/06/20 09:59:20;;;;;;;12.63;10.38;;;;;;;23.13;77.04;99881.48;1756009;79;25680;-79
2022/06/20 10:02:04;;;;;;;12.18;10.95;;;;;;;23.03;77.74;99873.38;1749670;79;27429;-78
2022/06/20 10:05:10;;;;;;;11.70;10.48;;;;;;;22.97;78.70;99869.03;1755245;79;26672;-78
2022/06/20 10:07:57;;;;;;;13.00;9.40;;;;;;;22.89;77.80;99886.03;1764633;79;25867;-78
2022/06/20 10:10:38;;;;;;;11.65;10.08;;;;;;;22.80;77.86;99883.64;1753654;79;26548;-78
2022/06/20 10:13:23;;;;;;;;;;;;;;;22.69;78.19;99871.18;1764990;79;26660;-78
2022/06/20 10:16:13;;;;;;;13.62;9.68;;;;;;;22.46;78.22;99871.81;1762490;79;28304;-78
2022/06/20 10:18:53;;;;;;;12.33;8.75;;;;;;;22.38;79.07;99874.60;1752305;79;25755;-77
2022/06/20 10:21:37;;;;;;;10.95;8.68;;;;;;;22.54;80.29;99884.31;1756387;80;35536;-78
2022/06/20 10:24:47;;;;;;;14.25;8.73;;;;;;;22.66;79.52;99865.73;1712194;80;26584;-77
2022/06/20 10:27:37;;;;;;;8.83;7.90;;;;;;;22.68;78.40;99876.36;1763323;79;26190;-77
2022/06/20 10:30:21;;;;;;;11.18;7.30;;;;;;;22.46;77.77;99876.73;1737445;79;27462;-79
2022/06/20 10:33:33;;;;;;;12.07;6.67;;;;;;;22.30;78.54;99890.75;1749566;79;25738;-78
2022/06/20 10:36:21;;;;;;;13.18;8.08;;;;;;;22.17;78.80;99897.62;1758343;78;25908;-78
2022/06/20 10:39:04;;;;;;;10.63;7.42;;;;;;;21.91;78.63;99903.73;1752791;79;25761;-78
2022/06/20 10:42:02;;;;;;;10.13;7.75;;;;;;;21.63;79.43;99923.38;1718178;82;26378;-78
2022/06/20 10:44:59;;;;;;;9.28;6.37;;;;;;;21.38;80.01;99943.29;1671179;82;27730;-78
2022/06/20 10:47:40;;;;;;;10.20;7.35;;;;;;;21.19;80.45;99967.28;1675658;82;25833;-79
2022/06/20 10:50:26;;;;;;;11.93;8.30;;;;;;;20.94;80.32;99988.97;1763717;79;25817;-78
2022/06/20 10:53:19;;;;;;;11.65;7.55;;;;;;;20.69;80.02;99996.54;1749821;79;26331;-77
2022/06/20 10:55:53;;;;;;;12.15;7.70;;;;;;;20.46;80.99;99991.02;1756235;79;25945;-79
2022/06/20 10:58:42;;;;;;;10.48;7.50;;;;;;;20.17;80.80;99990.28;1765300;79;27459;-78
2022/06/20 11:01:51;;;;;;;12.20;8.05;;;;;;;19.96;81.78;100016.01;1752884;79;25755;-80
2022/06/20 11:04:54;;;;;;;6.90;6.30;;;;;;;19.81;82.55;100036.82;1754472;79;25816;-79
2022/06/20 11:07:51;;;;;;;9.83;6.70;;;;;;;19.68;82.77;100048.95;1763219;79;25771;-77
2022/06/20 11:10:46;;;;;;;9.73;6.60;;;;;;;19.58;82.57;100050.23;1749957;79;25953;-78
2022/06/20 11:13:46;;;;;;;10.23;7.00;;;;;;;19.48;82.85;100026.23;1751571;79;28046;-79
2022/06/20 11:16:50;;;;;;;13.00;7.12;;;;;;;19.36;83.80;100014.70;1764015;79;25934;-78
2022/06/20 11:19:28;;;;;;;10.90;6.50;;;;;;;19.16;85.01;99963.17;1761917;79;25876;-79
2022/06/20 11:22:14;;;;;;;8.68;7.20;;;;;;;19.04;85.24;99920.45;1749609;79;25915;-79
2022/06/20 11:24:49;;;;;;;11.80;7.83;;;;;;;19.00;86.15;99922.58;1757008;79;25712;-78
2022/06/20 11:27:52;;;;;;;8.25;7.42;;;;;;;18.96;86.14;99936.39;1762136;79;27448;-78
2022/06/20 11:30:38;;;;;;;9.23;7.70;;;;;;;18.92;86.44;99946.95;1767842;79;25915;-77
2022/06/20 11:34:01;;;;;;;15.48;8.30;;;;;;;18.92;86.99;99947.48;1766504;79;25688;-80
2022/06/20 11:36:55;;;;;;;14.28;8.43;;;;;;;18.93;86.82;99951.81;1755141;79;25960;-78
2022/06/20 11:39:44;;;;;;;12.15;8.58;;;;;;;18.93;87.36;99958.60;1699360;79;26823;-78
2022/06/20 11:42:55;;;;;;;9.15;8.23;;;;;;;18.98;87.80;100004.28;1763210;79;27439;-79
2022/06/20 11:45:57;;;;;;;;;;;;;;;19.04;88.26;100050.75;1742507;81;26261;-78
2022/06/20 11:49:02;;;;;;;9.48;8.58;;;;;;;19.04;88.95;100146.30;1745592;79;25808;-78
2022/06/20 11:52:09;;;;;;;11.55;8.33;;;;;;;19.03;89.54;100143.31;1756963;80;26572;-79
2022/06/20 11:54:58;;;;;;;10.78;8.83;;;;;;;18.84;90.08;100017.15;1746201;79;25925;-79
2022/06/20 11:57:53;;;;;;;12.78;9.53;;;;;;;18.69;90.81;99897.05;1770168;78;27525;-79
2022/06/20 12:00:25;;;;;;;12.68;9.05;;;;;;;18.58;92.65;99852.45;1641002;85;25861;-79
2022/06/20 12:03:25;;;;;;;13.15;9.03;;;;;;;18.52;93.12;99835.86;1642638;86;25871;-79
2022/06/20 12:06:03;;;;;;;11.75;10.23;;;;;;;18.51;93.92;99864.05;1674137;82;26621;-79
2022/06/20 12:09:11;;;;;;;11.60;10.03;;;;;;;18.58;94.21;99876.88;1767825;79;26460;-78
2022/06/20 12:12:13;;;;;;;15.48;9.73;;;;;;;18.71;93.71;99936.94;1757743;79;27433;-79
2022/06/20 12:14:51;;;;;;;12.33;9.65;;;;;;;18.88;94.45;99965.36;1752826;79;25784;-78
2022/06/20 12:17:51;;;;;;;12.15;10.15;;;;;;;18.99;94.39;99973.89;1752263;80;25978;-80
2022/06/20 12:23:32;;;;;;;13.65;9.35;;;;;;;19.09;94.62;99965.30;1767336;79;25763;-79
2022/06/20 12:26:12;;;;;;;11.93;10.58;;;;;;;19.16;95.80;99948.24;1757164;79;27980;-80
2022/06/20 12:28:46;;;;;;;13.22;10.28;;;;;;;19.21;95.68;99944.22;1746414;79;25945;-80
2022/06/20 12:31:23;;;;;;;17.40;10.78;;;;;;;19.27;94.52;99953.78;1764027;79;26185;-79